Nearby METAR Reports

 

KPMD - Palmdale, California, USA
Distance from station: NNE 12mi, 19km
Updated: Sat, 20-Oct-2018 5:53am PDT
Clear
Clear
 Wind from NW
Wind: NW 3 mph , 6 km/h
Temperature: 48°F , 9°C
Dew Point: 23°F , -5°C
Humidity: 37%
Barometer: 30.11 inHg , 1019.6 hPa
Clouds: Clear
Visibility: 10 miles , 16 km
2018/10/20 12:53 KPMD 201253Z 32003KT 10SM CLR 09/M05 A3011 RMK AO2 SLP180 T00891050
KWJF - Lancaster/Fox, California, USA
Distance from station: N 17mi, 27km
Updated: Sat, 20-Oct-2018 5:56am PDT
Clear
Clear
 Wind from calm
Wind: Calm
Temperature: 43°F , 6°C
Dew Point: 18°F , -8°C
Humidity: 36%
Barometer: 30.11 inHg , 1019.6 hPa
Clouds: Clear
Visibility: 10 miles , 16 km
2018/10/20 12:56 KWJF 201256Z AUTO 00000KT 10SM CLR 06/M08 A3011 RMK AO2 SLP193 T00561078
 
KMWS - Mount Wilson, California, USA
Distance from station: SSE 18mi, 30km
Updated: Wed, 13-May-2015 6:45am PDT
NOT Current

 Wind from S
Wind: S 3 mph , 6 km/h, Gust: 5 mph , 7 km/h
Temperature: 43°F , 6°C
Dew Point: -0°F , -18°C
Humidity: 16%
2015/05/13 13:45 KMWS 131345Z 18003G04KT 06/M18 RMK SNOW DEPTH 1.00
KWHP - La / Whiteman, California, USA
Distance from station: SW 21mi, 34km
Updated: Fri, 19-Oct-2018 5:55pm PDT
NOT Current
Clear
Clear
 Wind from N
Wind: N 12 mph , 19 km/h, Gust: 23 mph , 37 km/h
Temperature: 82°F , 28°C
Dew Point: 25°F , -4°C
Humidity: 12%
Barometer: 29.99 inHg , 1015.6 hPa
Clouds: Clear
Visibility: 10 miles , 16 km
2018/10/20 00:55 KWHP 200055Z 36010G20KT 10SM SKC 28/M04 A2999
 
KBUR - Burbank, California, USA
Distance from station: SSW 22mi, 35km
Updated: Sat, 20-Oct-2018 5:53am PDT
Clear
Clear
 Wind from calm
Wind: Calm
Temperature: 61°F , 16°C
Dew Point: 34°F , 1°C
Humidity: 36%
Barometer: 29.96 inHg , 1014.6 hPa
Clouds: Clear
Visibility: 10 miles , 16 km
2018/10/20 12:53 KBUR 201253Z 00000KT 10SM CLR 16/01 A2996 RMK AO2 SLP133 T01610006 $
KVNY - Van Nuys, California, USA
Distance from station: SW 25mi, 40km
Updated: Sat, 20-Oct-2018 5:51am PDT
Clear
Clear
 Wind from calm
Wind: Calm
Temperature: 63°F , 17°C
Dew Point: 34°F , 1°C
Humidity: 34%
Barometer: 29.96 inHg , 1014.6 hPa
Clouds: Clear
Visibility: 10 miles , 16 km
2018/10/20 12:51 KVNY 201251Z AUTO 00000KT 10SM CLR 17/01 A2996 RMK AO2 SLP138 T01670006
 
KEDW - Edwards Afb, California, USA
Distance from station: NNE 33mi, 53km
Updated: Fri, 19-Oct-2018 11:58pm PDT
NOT Current
Clear
Clear
 Wind from NNW
Wind: NNW 9 mph , 15 km/h
Temperature: 55°F , 13°C
Dew Point: 19°F , -7°C
Humidity: 24%
Barometer: 30.08 inHg , 1018.6 hPa
Clouds: Clear
Visibility: 10 miles , 16 km
2018/10/20 06:58 KEDW 200658Z AUTO 33008KT 10SM CLR 13/M07 A3008 RMK AO2 SLP172 T01321075 $
KSMO - Santa Monica, California, USA
Distance from station: SSW 35mi, 57km
Updated: Sat, 20-Oct-2018 5:51am PDT
Clear
Clear
 Wind from calm
Wind: Calm
Temperature: 64°F , 18°C
Dew Point: 39°F , 4°C
Humidity: 40%
Barometer: 29.94 inHg , 1013.9 hPa
Clouds: Clear
Visibility: 10 miles , 16 km
2018/10/20 12:51 KSMO 201251Z AUTO 00000KT 10SM CLR 18/04 A2994 RMK AO2 SLP137 T01780039
 
KLAX - Los Angeles, California, USA
Distance from station: SSW 39mi, 63km
Updated: Sat, 20-Oct-2018 5:53am PDT
Clear
Clear
 Wind from calm
Wind: Calm
Temperature: 64°F , 18°C
Dew Point: 43°F , 6°C
Humidity: 46%
Barometer: 29.94 inHg , 1013.9 hPa
Clouds: Clear
Visibility: 10 miles , 16 km
2018/10/20 12:53 KLAX 201253Z 00000KT 10SM CLR 18/06 A2994 RMK AO2 SLP137 T01780056 $
KMHV - Mojave, California, USA
Distance from station: N 41mi, 66km
Updated: Sat, 20-Oct-2018 6:00am PDT
Clear
Clear
 Wind from N
Wind: N 9 mph , 15 km/h
Temperature: 52°F , 11°C
Dew Point: 18°F , -8°C
Humidity: 26%
Barometer: 30.11 inHg , 1019.6 hPa
Clouds: Clear
Visibility: 10 miles , 16 km
2018/10/20 13:00 KMHV 201300Z AUTO 01008KT 10SM CLR 11/M08 A3011 RMK A01
 
KFUL - Fullerton, California, USA
Distance from station: SSE 44mi, 70km
Updated: Sat, 20-Oct-2018 5:53am PDT
Clear
Clear
 Wind from calm
Wind: Calm
Temperature: 61°F , 16°C
Dew Point: 37°F , 3°C
Humidity: 42%
Barometer: 29.94 inHg , 1013.9 hPa
Clouds: Clear
Visibility: 10 miles , 16 km
2018/10/20 12:53 KFUL 201253Z AUTO 00000KT 10SM CLR 16/03 A2994 RMK AO2 SLP136 T01610033
KONT - Ontario, California, USA
Distance from station: SE 45mi, 72km
Updated: Sat, 20-Oct-2018 5:53am PDT
Clear
Clear
 Wind from WNW
Wind: WNW 5 mph , 7 km/h
Temperature: 63°F , 17°C
Dew Point: 36°F , 2°C
Humidity: 37%
Barometer: 29.97 inHg , 1014.9 hPa
Clouds: Clear
Visibility: 10 miles , 16 km
2018/10/20 12:53 KONT 201253Z 30004KT 10SM CLR 17/02 A2997 RMK AO2 SLP135 T01720017
 
KLGB - Long Beach, California, USA
Distance from station: S 46mi, 74km
Updated: Sat, 20-Oct-2018 5:53am PDT
Clear
Clear
 Wind from calm
Wind: Calm
Temperature: 63°F , 17°C
Dew Point: 41°F , 5°C
Humidity: 45%
Barometer: 29.94 inHg , 1013.9 hPa
Clouds: Clear
Visibility: 8 miles , 13 km
2018/10/20 12:53 KLGB 201253Z AUTO 00000KT 8SM CLR 17/05 A2994 RMK AO2 SLP139 T01670050
KVCV - Victorville, California, USA
Distance from station: E 46mi, 74km
Updated: Sat, 20-Oct-2018 5:55am PDT
Clear
Clear
 Wind from calm
Wind: Calm
Barometer: 30.11 inHg , 1019.6 hPa
Clouds: Clear
Visibility: 10 miles , 16 km
2018/10/20 12:55 KVCV 201255Z 00000KT 10SM CLR A3011
 
KTSP - Tehachapi, California, USA
Distance from station: NNW 48mi, 77km
Updated: Sat, 20-Oct-2018 6:15am PDT
Clear
Clear
 Wind from SE
Wind: SE 7 mph , 11 km/h
Temperature: 46°F , 8°C
Wind Chill: 42°F , 6°C
Dew Point: 18°F , -8°C
Humidity: 32%
Barometer: 30.16 inHg , 1021.3 hPa
Clouds: Clear
Visibility: 10 miles , 16 km
2018/10/20 13:15 KTSP 201315Z AUTO 13006KT 10SM CLR 08/M08 A3016 RMK AO2